sensor_id;sensor_type;location;lat;lon;timestamp;P1;durP1;ratioP1;P2;durP2;ratioP2
10013;SDS011;45684;48.358;10.746;2022-11-13T00:00:23;8.90;;;8.10;;
10013;SDS011;45684;48.358;10.746;2022-11-13T00:03:09;8.70;;;7.80;;
10013;SDS011;45684;48.358;10.746;2022-11-13T00:05:58;8.90;;;8.10;;
10013;SDS011;45684;48.358;10.746;2022-11-13T00:08:47;8.03;;;7.33;;
10013;SDS011;45684;48.358;10.746;2022-11-13T00:11:33;10.00;;;7.73;;
10013;SDS011;45684;48.358;10.746;2022-11-13T00:14:19;8.70;;;7.90;;
10013;SDS011;45684;48.358;10.746;2022-11-13T00:17:06;8.37;;;7.67;;
10013;SDS011;45684;48.358;10.746;2022-11-13T00:19:52;8.83;;;8.00;;
10013;SDS011;45684;48.358;10.746;2022-11-13T00:22:38;8.20;;;7.50;;
10013;SDS011;45684;48.358;10.746;2022-11-13T00:25:26;8.40;;;7.67;;
10013;SDS011;45684;48.358;10.746;2022-11-13T00:28:12;9.07;;;8.27;;
10013;SDS011;45684;48.358;10.746;2022-11-13T00:30:59;8.83;;;8.03;;
10013;SDS011;45684;48.358;10.746;2022-11-13T00:33:46;9.33;;;8.53;;
10013;SDS011;45684;48.358;10.746;2022-11-13T00:36:53;10.17;;;8.90;;
10013;SDS011;45684;48.358;10.746;2022-11-13T00:39:39;9.70;;;8.80;;
10013;SDS011;45684;48.358;10.746;2022-11-13T00:42:27;10.53;;;9.50;;
10013;SDS011;45684;48.358;10.746;2022-11-13T00:45:13;9.33;;;8.43;;
10013;SDS011;45684;48.358;10.746;2022-11-13T00:48:00;10.37;;;9.37;;
10013;SDS011;45684;48.358;10.746;2022-11-13T00:50:46;10.30;;;9.17;;
10013;SDS011;45684;48.358;10.746;2022-11-13T00:53:33;10.00;;;9.00;;
10013;SDS011;45684;48.358;10.746;2022-11-13T00:56:20;10.47;;;9.40;;
10013;SDS011;45684;48.358;10.746;2022-11-13T00:59:08;10.13;;;9.13;;
10013;SDS011;45684;48.358;10.746;2022-11-13T01:01:54;10.33;;;9.33;;
10013;SDS011;45684;48.358;10.746;2022-11-13T01:04:41;9.90;;;8.90;;
10013;SDS011;45684;48.358;10.746;2022-11-13T01:07:28;10.73;;;9.73;;
10013;SDS011;45684;48.358;10.746;2022-11-13T01:10:14;9.80;;;8.90;;
10013;SDS011;45684;48.358;10.746;2022-11-13T01:13:00;11.03;;;9.60;;
10013;SDS011;45684;48.358;10.746;2022-11-13T01:15:48;11.10;;;10.00;;
10013;SDS011;45684;48.358;10.746;2022-11-13T01:18:34;11.13;;;10.03;;
10013;SDS011;45684;48.358;10.746;2022-11-13T01:21:21;11.13;;;10.03;;
10013;SDS011;45684;48.358;10.746;2022-11-13T01:24:10;11.40;;;10.30;;
10013;SDS011;45684;48.358;10.746;2022-11-13T01:26:56;11.60;;;10.40;;
10013;SDS011;45684;48.358;10.746;2022-11-13T01:29:42;11.37;;;10.27;;
10013;SDS011;45684;48.358;10.746;2022-11-13T01:32:30;11.30;;;10.20;;
10013;SDS011;45684;48.358;10.746;2022-11-13T01:35:17;10.77;;;9.67;;
10013;SDS011;45684;48.358;10.746;2022-11-13T01:38:03;10.60;;;9.50;;
10013;SDS011;45684;48.358;10.746;2022-11-13T01:40:50;11.37;;;10.27;;
10013;SDS011;45684;48.358;10.746;2022-11-13T01:43:36;11.40;;;10.20;;
10013;SDS011;45684;48.358;10.746;2022-11-13T01:46:25;10.97;;;9.87;;
10013;SDS011;45684;48.358;10.746;2022-11-13T01:49:27;12.10;;;10.90;;
10013;SDS011;45684;48.358;10.746;2022-11-13T01:52:18;11.40;;;10.20;;
10013;SDS011;45684;48.358;10.746;2022-11-13T01:55:07;11.37;;;10.27;;
10013;SDS011;45684;48.358;10.746;2022-11-13T01:57:56;11.73;;;10.40;;
10013;SDS011;45684;48.358;10.746;2022-11-13T02:00:44;12.50;;;10.57;;
10013;SDS011;45684;48.358;10.746;2022-11-13T02:03:31;11.87;;;10.67;;
10013;SDS011;45684;48.358;10.746;2022-11-13T02:06:19;11.23;;;10.07;;
10013;SDS011;45684;48.358;10.746;2022-11-13T02:09:06;12.60;;;11.30;;
10013;SDS011;45684;48.358;10.746;2022-11-13T02:11:55;12.70;;;11.23;;
10013;SDS011;45684;48.358;10.746;2022-11-13T02:14:42;11.07;;;9.97;;
10013;SDS011;45684;48.358;10.746;2022-11-13T02:17:33;11.20;;;10.00;;
10013;SDS011;45684;48.358;10.746;2022-11-13T02:20:26;11.43;;;9.63;;
10013;SDS011;45684;48.358;10.746;2022-11-13T02:23:19;12.33;;;10.50;;
10013;SDS011;45684;48.358;10.746;2022-11-13T02:26:15;11.57;;;10.10;;
10013;SDS011;45684;48.358;10.746;2022-11-13T02:29:03;12.00;;;10.23;;
10013;SDS011;45684;48.358;10.746;2022-11-13T02:31:50;11.67;;;10.47;;
10013;SDS011;45684;48.358;10.746;2022-11-13T02:34:36;11.87;;;10.67;;
10013;SDS011;45684;48.358;10.746;2022-11-13T02:37:22;11.63;;;10.50;;
10013;SDS011;45684;48.358;10.746;2022-11-13T02:40:08;11.53;;;10.33;;
10013;SDS011;45684;48.358;10.746;2022-11-13T02:42:56;11.90;;;10.30;;
10013;SDS011;45684;48.358;10.746;2022-11-13T02:45:43;11.57;;;10.03;;
10013;SDS011;45684;48.358;10.746;2022-11-13T02:48:29;11.90;;;10.70;;
10013;SDS011;45684;48.358;10.746;2022-11-13T02:51:15;11.83;;;10.53;;
10013;SDS011;45684;48.358;10.746;2022-11-13T02:54:02;10.40;;;9.40;;
10013;SDS011;45684;48.358;10.746;2022-11-13T02:56:48;11.40;;;10.00;;
10013;SDS011;45684;48.358;10.746;2022-11-13T02:59:36;10.53;;;9.40;;
10013;SDS011;45684;48.358;10.746;2022-11-13T03:02:22;11.73;;;9.40;;
10013;SDS011;45684;48.358;10.746;2022-11-13T03:05:09;11.23;;;9.77;;
10013;SDS011;45684;48.358;10.746;2022-11-13T03:07:57;10.63;;;9.53;;
10013;SDS011;45684;48.358;10.746;2022-11-13T03:10:44;11.10;;;9.70;;
10013;SDS011;45684;48.358;10.746;2022-11-13T03:13:33;10.23;;;9.23;;
10013;SDS011;45684;48.358;10.746;2022-11-13T03:16:21;10.00;;;9.00;;
10013;SDS011;45684;48.358;10.746;2022-11-13T03:19:07;10.90;;;9.80;;
10013;SDS011;45684;48.358;10.746;2022-11-13T03:21:54;10.20;;;9.20;;
10013;SDS011;45684;48.358;10.746;2022-11-13T03:24:40;10.83;;;9.73;;
10013;SDS011;45684;48.358;10.746;2022-11-13T03:27:26;10.27;;;8.90;;
10013;SDS011;45684;48.358;10.746;2022-11-13T03:30:12;9.83;;;8.83;;
10013;SDS011;45684;48.358;10.746;2022-11-13T03:33:00;9.80;;;8.80;;
10013;SDS011;45684;48.358;10.746;2022-11-13T03:35:46;11.77;;;10.57;;
10013;SDS011;45684;48.358;10.746;2022-11-13T03:38:32;12.30;;;10.67;;
10013;SDS011;45684;48.358;10.746;2022-11-13T03:41:20;10.47;;;9.37;;
10013;SDS011;45684;48.358;10.746;2022-11-13T03:44:06;9.57;;;8.67;;
10013;SDS011;45684;48.358;10.746;2022-11-13T03:46:53;10.17;;;9.17;;
10013;SDS011;45684;48.358;10.746;2022-11-13T03:49:40;10.33;;;9.33;;
10013;SDS011;45684;48.358;10.746;2022-11-13T03:52:26;10.10;;;9.10;;
10013;SDS011;45684;48.358;10.746;2022-11-13T03:55:13;10.17;;;9.17;;
10013;SDS011;45684;48.358;10.746;2022-11-13T03:57:59;10.57;;;9.57;;
10013;SDS011;45684;48.358;10.746;2022-11-13T04:00:45;9.70;;;8.80;;
10013;SDS011;45684;48.358;10.746;2022-11-13T04:03:33;9.43;;;8.53;;
10013;SDS011;45684;48.358;10.746;2022-11-13T04:06:20;10.43;;;9.40;;
10013;SDS011;45684;48.358;10.746;2022-11-13T04:09:06;10.70;;;9.60;;
10013;SDS011;45684;48.358;10.746;2022-11-13T04:11:53;10.50;;;9.40;;
10013;SDS011;45684;48.358;10.746;2022-11-13T04:14:39;10.73;;;9.63;;
10013;SDS011;45684;48.358;10.746;2022-11-13T04:17:25;10.10;;;9.10;;
10013;SDS011;45684;48.358;10.746;2022-11-13T04:20:11;10.00;;;9.00;;
10013;SDS011;45684;48.358;10.746;2022-11-13T04:22:59;10.63;;;9.53;;
10013;SDS011;45684;48.358;10.746;2022-11-13T04:25:47;10.90;;;9.27;;
10013;SDS011;45684;48.358;10.746;2022-11-13T04:28:33;9.70;;;8.70;;
10013;SDS011;45684;48.358;10.746;2022-11-13T04:31:19;9.73;;;8.83;;
10013;SDS011;45684;48.358;10.746;2022-11-13T04:34:06;9.70;;;8.80;;
10013;SDS011;45684;48.358;10.746;2022-11-13T04:36:53;9.70;;;8.73;;
10013;SDS011;45684;48.358;10.746;2022-11-13T04:39:41;9.90;;;8.90;;
10013;SDS011;45684;48.358;10.746;2022-11-13T04:42:27;8.93;;;8.13;;
10013;SDS011;45684;48.358;10.746;2022-11-13T04:45:31;11.77;;;9.47;;
10013;SDS011;45684;48.358;10.746;2022-11-13T04:48:17;9.10;;;8.30;;
10013;SDS011;45684;48.358;10.746;2022-11-13T04:51:03;9.10;;;8.10;;
10013;SDS011;45684;48.358;10.746;2022-11-13T04:53:50;8.70;;;7.90;;
10013;SDS011;45684;48.358;10.746;2022-11-13T04:56:38;9.17;;;8.27;;
10013;SDS011;45684;48.358;10.746;2022-11-13T04:59:24;8.70;;;7.90;;
10013;SDS011;45684;48.358;10.746;2022-11-13T05:02:10;9.77;;;8.77;;
10013;SDS011;45684;48.358;10.746;2022-11-13T05:04:56;8.87;;;7.97;;
10013;SDS011;45684;48.358;10.746;2022-11-13T05:07:49;9.53;;;8.63;;
10013;SDS011;45684;48.358;10.746;2022-11-13T05:10:35;9.00;;;8.20;;
10013;SDS011;45684;48.358;10.746;2022-11-13T05:13:23;9.17;;;8.27;;
10013;SDS011;45684;48.358;10.746;2022-11-13T05:16:10;8.87;;;7.90;;
10013;SDS011;45684;48.358;10.746;2022-11-13T05:18:58;8.77;;;7.97;;
10013;SDS011;45684;48.358;10.746;2022-11-13T05:21:44;9.40;;;8.50;;
10013;SDS011;45684;48.358;10.746;2022-11-13T05:24:30;9.17;;;8.27;;
10013;SDS011;45684;48.358;10.746;2022-11-13T05:27:16;9.50;;;8.57;;
10013;SDS011;45684;48.358;10.746;2022-11-13T05:30:05;8.90;;;8.00;;
10013;SDS011;45684;48.358;10.746;2022-11-13T05:32:52;8.67;;;7.87;;
10013;SDS011;45684;48.358;10.746;2022-11-13T05:35:39;9.23;;;8.33;;
10013;SDS011;45684;48.358;10.746;2022-11-13T05:38:25;9.50;;;8.60;;
10013;SDS011;45684;48.358;10.746;2022-11-13T05:41:13;8.87;;;7.97;;
10013;SDS011;45684;48.358;10.746;2022-11-13T05:44:00;8.93;;;8.13;;
10013;SDS011;45684;48.358;10.746;2022-11-13T05:46:48;9.40;;;8.50;;
10013;SDS011;45684;48.358;10.746;2022-11-13T05:49:34;9.03;;;8.13;;
10013;SDS011;45684;48.358;10.746;2022-11-13T05:52:23;8.93;;;8.03;;
10013;SDS011;45684;48.358;10.746;2022-11-13T05:55:09;8.70;;;7.80;;
10013;SDS011;45684;48.358;10.746;2022-11-13T05:57:57;9.23;;;8.43;;
10013;SDS011;45684;48.358;10.746;2022-11-13T06:00:43;9.03;;;8.20;;
10013;SDS011;45684;48.358;10.746;2022-11-13T06:03:32;9.50;;;8.60;;
10013;SDS011;45684;48.358;10.746;2022-11-13T06:06:19;9.53;;;8.63;;
10013;SDS011;45684;48.358;10.746;2022-11-13T06:09:07;9.37;;;8.47;;
10013;SDS011;45684;48.358;10.746;2022-11-13T06:11:55;8.87;;;7.97;;
10013;SDS011;45684;48.358;10.746;2022-11-13T06:14:41;10.00;;;8.90;;
10013;SDS011;45684;48.358;10.746;2022-11-13T06:17:27;9.13;;;8.23;;
10013;SDS011;45684;48.358;10.746;2022-11-13T06:20:15;9.80;;;8.80;;
10013;SDS011;45684;48.358;10.746;2022-11-13T06:23:01;10.23;;;9.23;;
10013;SDS011;45684;48.358;10.746;2022-11-13T06:25:48;11.83;;;10.63;;
10013;SDS011;45684;48.358;10.746;2022-11-13T06:28:35;13.93;;;11.73;;
10013;SDS011;45684;48.358;10.746;2022-11-13T06:31:24;12.13;;;10.83;;
10013;SDS011;45684;48.358;10.746;2022-11-13T06:34:13;11.80;;;10.60;;
10013;SDS011;45684;48.358;10.746;2022-11-13T06:37:06;11.00;;;9.87;;
10013;SDS011;45684;48.358;10.746;2022-11-13T06:39:53;11.83;;;10.70;;
10013;SDS011;45684;48.358;10.746;2022-11-13T06:42:40;11.43;;;10.23;;
10013;SDS011;45684;48.358;10.746;2022-11-13T06:45:26;12.23;;;10.93;;
10013;SDS011;45684;48.358;10.746;2022-11-13T06:48:12;12.03;;;10.83;;
10013;SDS011;45684;48.358;10.746;2022-11-13T06:50:59;12.60;;;11.30;;
10013;SDS011;45684;48.358;10.746;2022-11-13T06:53:50;14.43;;;12.13;;
10013;SDS011;45684;48.358;10.746;2022-11-13T06:56:45;15.13;;;12.77;;
10013;SDS011;45684;48.358;10.746;2022-11-13T06:59:34;17.67;;;13.80;;
10013;SDS011;45684;48.358;10.746;2022-11-13T07:02:21;15.83;;;13.07;;
10013;SDS011;45684;48.358;10.746;2022-11-13T07:05:07;17.73;;;14.40;;
10013;SDS011;45684;48.358;10.746;2022-11-13T07:07:56;17.37;;;14.13;;
10013;SDS011;45684;48.358;10.746;2022-11-13T07:10:50;16.47;;;13.20;;
10013;SDS011;45684;48.358;10.746;2022-11-13T07:13:40;17.20;;;13.80;;
10013;SDS011;45684;48.358;10.746;2022-11-13T07:16:28;15.93;;;13.87;;
10013;SDS011;45684;48.358;10.746;2022-11-13T07:19:33;16.93;;;14.10;;
10013;SDS011;45684;48.358;10.746;2022-11-13T07:22:21;16.20;;;13.97;;
10013;SDS011;45684;48.358;10.746;2022-11-13T07:25:07;16.30;;;13.40;;
10013;SDS011;45684;48.358;10.746;2022-11-13T07:27:56;15.60;;;13.30;;
10013;SDS011;45684;48.358;10.746;2022-11-13T07:30:42;16.13;;;13.93;;
10013;SDS011;45684;48.358;10.746;2022-11-13T07:33:28;15.57;;;13.87;;
10013;SDS011;45684;48.358;10.746;2022-11-13T07:36:15;15.23;;;13.27;;
10013;SDS011;45684;48.358;10.746;2022-11-13T07:39:01;15.83;;;13.23;;
10013;SDS011;45684;48.358;10.746;2022-11-13T07:41:47;16.27;;;14.03;;
10013;SDS011;45684;48.358;10.746;2022-11-13T07:44:37;14.37;;;12.87;;
10013;SDS011;45684;48.358;10.746;2022-11-13T07:47:38;15.03;;;13.47;;
10013;SDS011;45684;48.358;10.746;2022-11-13T07:50:26;13.27;;;11.87;;
10013;SDS011;45684;48.358;10.746;2022-11-13T07:53:14;13.33;;;11.80;;
10013;SDS011;45684;48.358;10.746;2022-11-13T07:56:03;12.33;;;11.13;;
10013;SDS011;45684;48.358;10.746;2022-11-13T07:58:50;13.00;;;11.70;;
10013;SDS011;45684;48.358;10.746;2022-11-13T08:01:38;13.77;;;12.10;;
10013;SDS011;45684;48.358;10.746;2022-11-13T08:04:24;13.77;;;12.37;;
10013;SDS011;45684;48.358;10.746;2022-11-13T08:07:13;13.27;;;11.97;;
10013;SDS011;45684;48.358;10.746;2022-11-13T08:10:00;13.80;;;12.03;;
10013;SDS011;45684;48.358;10.746;2022-11-13T08:12:46;13.13;;;11.80;;
10013;SDS011;45684;48.358;10.746;2022-11-13T08:15:33;13.20;;;11.77;;
10013;SDS011;45684;48.358;10.746;2022-11-13T08:18:20;13.03;;;11.73;;
10013;SDS011;45684;48.358;10.746;2022-11-13T08:21:07;12.37;;;11.17;;
10013;SDS011;45684;48.358;10.746;2022-11-13T08:23:59;12.90;;;11.60;;
10013;SDS011;45684;48.358;10.746;2022-11-13T08:26:45;12.80;;;11.53;;
10013;SDS011;45684;48.358;10.746;2022-11-13T08:29:34;13.17;;;11.80;;
10013;SDS011;45684;48.358;10.746;2022-11-13T08:32:21;12.67;;;11.43;;
10013;SDS011;45684;48.358;10.746;2022-11-13T08:35:09;12.80;;;11.47;;
10013;SDS011;45684;48.358;10.746;2022-11-13T08:38:03;12.43;;;11.20;;
10013;SDS011;45684;48.358;10.746;2022-11-13T08:40:50;12.03;;;10.83;;
10013;SDS011;45684;48.358;10.746;2022-11-13T08:43:37;11.53;;;10.43;;
10013;SDS011;45684;48.358;10.746;2022-11-13T08:46:23;11.77;;;10.63;;
10013;SDS011;45684;48.358;10.746;2022-11-13T08:49:10;11.97;;;10.77;;
10013;SDS011;45684;48.358;10.746;2022-11-13T08:52:00;12.13;;;11.03;;
10013;SDS011;45684;48.358;10.746;2022-11-13T08:54:46;12.40;;;11.20;;
10013;SDS011;45684;48.358;10.746;2022-11-13T08:57:32;11.77;;;10.57;;
10013;SDS011;45684;48.358;10.746;2022-11-13T09:00:19;11.40;;;10.30;;
10013;SDS011;45684;48.358;10.746;2022-11-13T09:03:07;11.80;;;10.60;;
10013;SDS011;45684;48.358;10.746;2022-11-13T09:05:55;11.93;;;10.73;;
10013;SDS011;45684;48.358;10.746;2022-11-13T09:08:43;11.50;;;10.30;;
10013;SDS011;45684;48.358;10.746;2022-11-13T09:11:32;11.60;;;10.43;;
10013;SDS011;45684;48.358;10.746;2022-11-13T09:14:26;11.87;;;10.60;;
10013;SDS011;45684;48.358;10.746;2022-11-13T09:17:13;11.13;;;10.03;;
10013;SDS011;45684;48.358;10.746;2022-11-13T09:20:00;11.63;;;10.47;;
10013;SDS011;45684;48.358;10.746;2022-11-13T09:22:55;12.47;;;11.13;;
10013;SDS011;45684;48.358;10.746;2022-11-13T09:25:44;10.60;;;9.60;;
10013;SDS011;45684;48.358;10.746;2022-11-13T09:28:30;10.60;;;9.50;;
10013;SDS011;45684;48.358;10.746;2022-11-13T09:31:16;10.77;;;9.67;;
10013;SDS011;45684;48.358;10.746;2022-11-13T09:34:02;10.50;;;9.50;;
10013;SDS011;45684;48.358;10.746;2022-11-13T09:36:49;10.60;;;9.60;;
10013;SDS011;45684;48.358;10.746;2022-11-13T09:39:35;9.87;;;8.97;;
10013;SDS011;45684;48.358;10.746;2022-11-13T09:42:24;9.50;;;8.60;;
10013;SDS011;45684;48.358;10.746;2022-11-13T09:45:13;9.33;;;8.43;;
10013;SDS011;45684;48.358;10.746;2022-11-13T09:48:07;8.67;;;7.87;;
10013;SDS011;45684;48.358;10.746;2022-11-13T09:51:04;9.33;;;8.53;;
10013;SDS011;45684;48.358;10.746;2022-11-13T09:53:56;9.40;;;8.60;;
10013;SDS011;45684;48.358;10.746;2022-11-13T09:56:45;8.83;;;8.03;;
10013;SDS011;45684;48.358;10.746;2022-11-13T09:59:42;8.80;;;8.00;;
10013;SDS011;45684;48.358;10.746;2022-11-13T10:02:39;8.97;;;8.13;;
10013;SDS011;45684;48.358;10.746;2022-11-13T10:05:37;9.23;;;8.33;;
10013;SDS011;45684;48.358;10.746;2022-11-13T10:08:39;9.17;;;8.27;;
10013;SDS011;45684;48.358;10.746;2022-11-13T10:11:35;8.80;;;8.00;;
10013;SDS011;45684;48.358;10.746;2022-11-13T10:14:28;8.30;;;7.50;;
10013;SDS011;45684;48.358;10.746;2022-11-13T10:17:23;8.83;;;7.93;;
10013;SDS011;45684;48.358;10.746;2022-11-13T10:20:18;9.33;;;8.43;;
10013;SDS011;45684;48.358;10.746;2022-11-13T10:23:11;9.20;;;8.30;;
10013;SDS011;45684;48.358;10.746;2022-11-13T10:26:06;8.53;;;7.73;;
10013;SDS011;45684;48.358;10.746;2022-11-13T10:29:04;8.93;;;8.13;;
10013;SDS011;45684;48.358;10.746;2022-11-13T10:31:56;9.43;;;8.53;;
10013;SDS011;45684;48.358;10.746;2022-11-13T10:34:47;9.50;;;8.53;;
10013;SDS011;45684;48.358;10.746;2022-11-13T10:37:42;8.90;;;8.00;;
10013;SDS011;45684;48.358;10.746;2022-11-13T10:40:35;8.97;;;8.17;;
10013;SDS011;45684;48.358;10.746;2022-11-13T10:43:24;8.57;;;7.77;;
10013;SDS011;45684;48.358;10.746;2022-11-13T10:46:15;9.50;;;8.60;;
10013;SDS011;45684;48.358;10.746;2022-11-13T10:49:11;9.70;;;8.80;;
10013;SDS011;45684;48.358;10.746;2022-11-13T10:52:15;9.43;;;8.50;;
10013;SDS011;45684;48.358;10.746;2022-11-13T10:55:11;8.77;;;7.80;;
10013;SDS011;45684;48.358;10.746;2022-11-13T10:58:03;9.00;;;8.10;;
10013;SDS011;45684;48.358;10.746;2022-11-13T11:00:57;9.20;;;8.30;;
10013;SDS011;45684;48.358;10.746;2022-11-13T11:03:49;8.53;;;7.80;;
10013;SDS011;45684;48.358;10.746;2022-11-13T11:06:38;8.40;;;7.70;;
10013;SDS011;45684;48.358;10.746;2022-11-13T11:09:49;8.37;;;7.67;;
10013;SDS011;45684;48.358;10.746;2022-11-13T11:12:36;8.87;;;8.03;;
10013;SDS011;45684;48.358;10.746;2022-11-13T11:15:26;9.97;;;9.07;;
10013;SDS011;45684;48.358;10.746;2022-11-13T11:18:23;10.97;;;9.83;;
10013;SDS011;45684;48.358;10.746;2022-11-13T11:21:17;10.03;;;9.03;;
10013;SDS011;45684;48.358;10.746;2022-11-13T11:24:08;9.43;;;8.53;;
10013;SDS011;45684;48.358;10.746;2022-11-13T11:27:02;9.07;;;8.17;;
10013;SDS011;45684;48.358;10.746;2022-11-13T11:29:54;9.50;;;8.67;;
10013;SDS011;45684;48.358;10.746;2022-11-13T11:32:50;58.73;;;31.07;;
10013;SDS011;45684;48.358;10.746;2022-11-13T11:35:48;61.90;;;34.90;;
10013;SDS011;45684;48.358;10.746;2022-11-13T11:38:41;29.60;;;18.57;;
10013;SDS011;45684;48.358;10.746;2022-11-13T11:41:39;14.03;;;11.63;;
10013;SDS011;45684;48.358;10.746;2022-11-13T11:44:35;11.63;;;10.43;;
10013;SDS011;45684;48.358;10.746;2022-11-13T11:47:27;10.53;;;9.43;;
10013;SDS011;45684;48.358;10.746;2022-11-13T11:50:14;9.73;;;8.83;;
10013;SDS011;45684;48.358;10.746;2022-11-13T11:53:11;8.90;;;8.10;;
10013;SDS011;45684;48.358;10.746;2022-11-13T11:56:16;8.87;;;8.07;;
10013;SDS011;45684;48.358;10.746;2022-11-13T11:59:11;10.60;;;9.60;;
10013;SDS011;45684;48.358;10.746;2022-11-13T12:02:25;9.30;;;8.47;;
10013;SDS011;45684;48.358;10.746;2022-11-13T12:05:22;10.53;;;9.53;;
10013;SDS011;45684;48.358;10.746;2022-11-13T12:08:20;13.87;;;12.57;;
10013;SDS011;45684;48.358;10.746;2022-11-13T12:11:16;12.63;;;11.50;;
10013;SDS011;45684;48.358;10.746;2022-11-13T12:14:11;9.40;;;8.50;;
10013;SDS011;45684;48.358;10.746;2022-11-13T12:17:06;9.83;;;8.93;;
10013;SDS011;45684;48.358;10.746;2022-11-13T12:20:07;9.33;;;8.47;;
10013;SDS011;45684;48.358;10.746;2022-11-13T12:23:08;8.50;;;7.80;;
10013;SDS011;45684;48.358;10.746;2022-11-13T12:26:08;9.17;;;8.40;;
10013;SDS011;45684;48.358;10.746;2022-11-13T12:29:14;9.67;;;8.77;;
10013;SDS011;45684;48.358;10.746;2022-11-13T12:32:20;8.80;;;8.00;;
10013;SDS011;45684;48.358;10.746;2022-11-13T12:35:21;8.90;;;8.07;;
10013;SDS011;45684;48.358;10.746;2022-11-13T12:38:12;9.17;;;8.27;;
10013;SDS011;45684;48.358;10.746;2022-11-13T12:41:12;9.90;;;9.00;;
10013;SDS011;45684;48.358;10.746;2022-11-13T12:44:16;8.77;;;8.07;;
10013;SDS011;45684;48.358;10.746;2022-11-13T12:47:08;9.00;;;8.20;;
10013;SDS011;45684;48.358;10.746;2022-11-13T12:49:59;8.70;;;7.90;;
10013;SDS011;45684;48.358;10.746;2022-11-13T12:52:59;8.10;;;7.40;;
10013;SDS011;45684;48.358;10.746;2022-11-13T12:55:53;8.70;;;7.87;;
10013;SDS011;45684;48.358;10.746;2022-11-13T12:58:53;8.40;;;7.60;;
10013;SDS011;45684;48.358;10.746;2022-11-13T13:02:09;8.40;;;7.60;;
10013;SDS011;45684;48.358;10.746;2022-11-13T13:05:22;8.93;;;8.03;;
10013;SDS011;45684;48.358;10.746;2022-11-13T13:08:27;8.87;;;8.07;;
10013;SDS011;45684;48.358;10.746;2022-11-13T13:11:30;8.53;;;7.73;;
10013;SDS011;45684;48.358;10.746;2022-11-13T13:14:24;9.20;;;8.40;;
10013;SDS011;45684;48.358;10.746;2022-11-13T13:17:22;9.20;;;8.40;;
10013;SDS011;45684;48.358;10.746;2022-11-13T13:20:30;9.47;;;8.67;;
10013;SDS011;45684;48.358;10.746;2022-11-13T13:23:27;9.27;;;8.47;;
10013;SDS011;45684;48.358;10.746;2022-11-13T13:26:19;9.67;;;8.77;;
10013;SDS011;45684;48.358;10.746;2022-11-13T13:29:13;9.60;;;8.70;;
10013;SDS011;45684;48.358;10.746;2022-11-13T13:32:05;8.80;;;8.00;;
10013;SDS011;45684;48.358;10.746;2022-11-13T13:35:07;9.17;;;8.37;;
10013;SDS011;45684;48.358;10.746;2022-11-13T13:38:00;8.70;;;7.90;;
10013;SDS011;45684;48.358;10.746;2022-11-13T13:40:56;8.57;;;7.77;;
10013;SDS011;45684;48.358;10.746;2022-11-13T13:43:58;7.67;;;7.00;;
10013;SDS011;45684;48.358;10.746;2022-11-13T13:46:58;8.60;;;7.80;;
10013;SDS011;45684;48.358;10.746;2022-11-13T13:49:45;8.63;;;7.83;;
10013;SDS011;45684;48.358;10.746;2022-11-13T13:52:32;9.77;;;8.87;;
10013;SDS011;45684;48.358;10.746;2022-11-13T13:55:21;10.10;;;9.17;;
10013;SDS011;45684;48.358;10.746;2022-11-13T13:58:15;10.03;;;9.03;;
10013;SDS011;45684;48.358;10.746;2022-11-13T14:01:11;9.57;;;8.60;;
10013;SDS011;45684;48.358;10.746;2022-11-13T14:04:05;9.90;;;8.87;;
10013;SDS011;45684;48.358;10.746;2022-11-13T14:06:58;9.73;;;8.83;;
10013;SDS011;45684;48.358;10.746;2022-11-13T14:09:48;9.97;;;9.07;;
10013;SDS011;45684;48.358;10.746;2022-11-13T14:12:34;10.30;;;9.40;;
10013;SDS011;45684;48.358;10.746;2022-11-13T14:15:23;10.20;;;9.07;;
10013;SDS011;45684;48.358;10.746;2022-11-13T14:18:14;10.97;;;9.90;;
10013;SDS011;45684;48.358;10.746;2022-11-13T14:21:02;11.07;;;9.97;;
10013;SDS011;45684;48.358;10.746;2022-11-13T14:23:51;11.13;;;10.03;;
10013;SDS011;45684;48.358;10.746;2022-11-13T14:26:43;12.60;;;11.30;;
10013;SDS011;45684;48.358;10.746;2022-11-13T14:29:32;11.80;;;10.70;;
10013;SDS011;45684;48.358;10.746;2022-11-13T14:32:24;11.80;;;10.60;;
10013;SDS011;45684;48.358;10.746;2022-11-13T14:35:16;11.90;;;10.80;;
10013;SDS011;45684;48.358;10.746;2022-11-13T14:38:04;12.13;;;10.93;;
10013;SDS011;45684;48.358;10.746;2022-11-13T14:41:01;12.70;;;11.50;;
10013;SDS011;45684;48.358;10.746;2022-11-13T14:43:50;13.43;;;12.10;;
10013;SDS011;45684;48.358;10.746;2022-11-13T14:46:38;12.87;;;11.67;;
10013;SDS011;45684;48.358;10.746;2022-11-13T14:49:31;14.97;;;13.50;;
10013;SDS011;45684;48.358;10.746;2022-11-13T14:52:20;14.10;;;12.73;;
10013;SDS011;45684;48.358;10.746;2022-11-13T14:55:18;13.73;;;12.43;;
10013;SDS011;45684;48.358;10.746;2022-11-13T14:58:09;14.47;;;13.07;;
10013;SDS011;45684;48.358;10.746;2022-11-13T15:00:57;14.30;;;12.90;;
10013;SDS011;45684;48.358;10.746;2022-11-13T15:03:45;13.43;;;12.07;;
10013;SDS011;45684;48.358;10.746;2022-11-13T15:06:34;13.50;;;12.17;;
10013;SDS011;45684;48.358;10.746;2022-11-13T15:09:25;17.10;;;15.30;;
10013;SDS011;45684;48.358;10.746;2022-11-13T15:12:13;17.33;;;15.63;;
10013;SDS011;45684;48.358;10.746;2022-11-13T15:15:03;14.33;;;12.90;;
10013;SDS011;45684;48.358;10.746;2022-11-13T15:17:52;14.17;;;12.83;;
10013;SDS011;45684;48.358;10.746;2022-11-13T15:20:40;14.07;;;12.67;;
10013;SDS011;45684;48.358;10.746;2022-11-13T15:23:32;14.13;;;12.67;;
10013;SDS011;45684;48.358;10.746;2022-11-13T15:26:20;13.13;;;11.83;;
10013;SDS011;45684;48.358;10.746;2022-11-13T15:29:08;16.37;;;14.77;;
10013;SDS011;45684;48.358;10.746;2022-11-13T15:31:54;16.00;;;14.40;;
10013;SDS011;45684;48.358;10.746;2022-11-13T15:34:41;14.90;;;13.50;;
10013;SDS011;45684;48.358;10.746;2022-11-13T15:37:28;14.50;;;13.10;;
10013;SDS011;45684;48.358;10.746;2022-11-13T15:40:16;15.60;;;14.00;;
10013;SDS011;45684;48.358;10.746;2022-11-13T15:43:04;16.50;;;14.80;;
10013;SDS011;45684;48.358;10.746;2022-11-13T15:45:51;19.20;;;17.10;;
10013;SDS011;45684;48.358;10.746;2022-11-13T15:48:39;16.07;;;14.47;;
10013;SDS011;45684;48.358;10.746;2022-11-13T15:51:28;14.03;;;12.70;;
10013;SDS011;45684;48.358;10.746;2022-11-13T15:54:27;13.07;;;11.77;;
10013;SDS011;45684;48.358;10.746;2022-11-13T15:57:19;14.07;;;12.57;;
10013;SDS011;45684;48.358;10.746;2022-11-13T16:00:11;12.17;;;10.87;;
10013;SDS011;45684;48.358;10.746;2022-11-13T16:03:00;13.13;;;11.77;;
10013;SDS011;45684;48.358;10.746;2022-11-13T16:05:52;12.87;;;11.60;;
10013;SDS011;45684;48.358;10.746;2022-11-13T16:08:38;19.33;;;17.23;;
10013;SDS011;45684;48.358;10.746;2022-11-13T16:11:26;15.63;;;13.60;;
10013;SDS011;45684;48.358;10.746;2022-11-13T16:14:17;16.20;;;14.43;;
10013;SDS011;45684;48.358;10.746;2022-11-13T16:17:10;17.03;;;14.20;;
10013;SDS011;45684;48.358;10.746;2022-11-13T16:19:57;18.23;;;15.93;;
10013;SDS011;45684;48.358;10.746;2022-11-13T16:22:43;31.63;;;23.07;;
10013;SDS011;45684;48.358;10.746;2022-11-13T16:25:30;17.57;;;14.53;;
10013;SDS011;45684;48.358;10.746;2022-11-13T16:28:17;17.63;;;14.83;;
10013;SDS011;45684;48.358;10.746;2022-11-13T16:31:06;16.10;;;14.40;;
10013;SDS011;45684;48.358;10.746;2022-11-13T16:33:55;15.03;;;13.43;;